Time;durP1;ratioP1;P1;durP2;ratioP2;P2;SDS_P1;SDS_P2;PMS_P1;PMS_P2;Temp;Humidity;BMP_temperature;BMP_pressure;BME280_temperature;BME280_humidity;BME280_pressure;Samples;Min_cycle;Max_cycle;Signal;HPM_P1;HPM_P2
2022/07/17 00:00:52;;;;;;;5.40;1.80;;;;;;;18.31;51.57;101202.66;20738813;28;20410;-79
2022/07/17 00:10:53;;;;;;;6.35;1.45;;;;;;;18.07;52.70;101197.28;20738650;28;20214;-79
2022/07/17 00:20:55;;;;;;;4.07;1.58;;;;;;;17.87;53.63;101197.94;20822871;22;20046;-67
2022/07/17 00:30:57;;;;;;;3.80;1.48;;;;;;;17.72;54.60;101210.78;20823601;28;20599;-69
2022/07/17 00:40:59;;;;;;;5.80;1.60;;;;;;;17.55;55.88;101209.56;20830614;28;20485;-69
2022/07/17 00:51:00;;;;;;;10.15;2.10;;;;;;;17.36;57.69;101203.09;20830609;28;20049;-69
2022/07/17 01:01:02;;;;;;;5.05;1.63;;;;;;;17.00;59.03;101205.06;20828184;28;20052;-69
2022/07/17 01:11:03;;;;;;;3.80;1.38;;;;;;;16.84;60.30;101205.50;20828344;28;20493;-69
2022/07/17 01:21:05;;;;;;;4.53;1.50;;;;;;;16.71;61.57;101201.44;20827496;28;20512;-69
2022/07/17 01:31:06;;;;;;;4.30;1.70;;;;;;;16.52;62.69;101203.72;20827109;28;20045;-68
2022/07/17 01:41:07;;;;;;;4.25;1.35;;;;;;;16.34;64.31;101204.25;20825416;28;20042;-69
2022/07/17 01:51:09;;;;;;;4.60;1.38;;;;;;;16.06;68.25;101212.91;20825291;28;20045;-68
2022/07/17 02:01:10;;;;;;;4.47;2.20;;;;;;;15.77;68.57;101218.03;20823635;28;20559;-69
2022/07/17 02:11:12;;;;;;;5.07;1.48;;;;;;;15.71;68.78;101213.75;20824190;28;20095;-68
2022/07/17 02:21:14;;;;;;;5.95;1.70;;;;;;;15.46;70.00;101202.88;20822853;28;20054;-68
2022/07/17 02:31:15;;;;;;;7.07;2.10;;;;;;;15.30;71.11;101196.22;20821631;28;20440;-69
2022/07/17 02:41:17;;;;;;;4.93;1.60;;;;;;;15.20;72.19;101195.53;20821467;28;20060;-69
2022/07/17 02:51:18;;;;;;;3.85;1.83;;;;;;;14.97;74.29;101203.94;20836686;22;20053;-79
2022/07/17 03:01:20;;;;;;;6.35;1.83;;;;;;;14.90;75.45;101199.72;20825073;28;20052;-78
2022/07/17 03:11:21;;;;;;;7.72;1.75;;;;;;;14.56;78.39;101191.59;20820623;28;20144;-77
2022/07/17 03:21:23;;;;;;;6.65;1.77;;;;;;;14.56;78.68;101203.03;20819233;28;20046;-76
2022/07/17 03:31:24;;;;;;;5.20;1.60;;;;;;;14.45;79.56;101210.22;20819262;28;20080;-76
2022/07/17 03:41:26;;;;;;;5.28;1.95;;;;;;;14.58;77.42;101209.13;20819096;28;20100;-76
2022/07/17 03:51:28;;;;;;;5.47;1.65;;;;;;;14.49;77.01;101211.94;20818927;28;20076;-75
2022/07/17 04:01:30;;;;;;;5.18;1.90;;;;;;;14.33;78.34;101221.00;20818626;28;20045;-76
2022/07/17 04:11:32;;;;;;;5.90;1.73;;;;;;;14.47;78.07;101220.72;20833248;28;20219;-76
2022/07/17 04:21:33;;;;;;;5.43;1.63;;;;;;;14.47;77.88;101224.25;20832551;28;20735;-75
2022/07/17 04:31:34;;;;;;;8.43;2.50;;;;;;;14.68;75.90;101224.75;20831573;28;20052;-75
2022/07/17 04:41:36;;;;;;;6.80;2.03;;;;;;;15.65;67.57;101225.31;20830982;28;20045;-76
2022/07/17 04:51:37;;;;;;;7.65;1.90;;;;;;;16.12;65.25;101220.66;20829962;28;20501;-76
2022/07/17 05:01:39;;;;;;;5.22;1.65;;;;;;;15.64;68.32;101238.56;20829235;28;20058;-77
2022/07/17 05:11:40;;;;;;;6.70;1.80;;;;;;;15.69;67.90;101256.94;20801342;28;20141;-76
2022/07/17 05:21:42;;;;;;;6.82;2.13;;;;;;;15.91;67.58;101252.91;20744647;28;20052;-77
2022/07/17 05:31:43;;;;;;;5.93;1.83;;;;;;;16.08;66.35;101261.25;20744449;28;20072;-78
2022/07/17 05:41:45;;;;;;;8.82;1.67;;;;;;;16.33;65.50;101255.34;20744328;28;20108;-77
2022/07/17 05:51:46;;;;;;;5.50;1.58;;;;;;;16.63;63.10;101249.28;20744382;28;20053;-76
2022/07/17 06:01:48;;;;;;;4.53;1.70;;;;;;;17.05;59.52;101262.22;20742685;28;20049;-78
2022/07/17 06:11:49;;;;;;;6.47;1.77;;;;;;;17.25;60.94;101258.13;20744599;28;20552;-76
2022/07/17 06:21:50;;;;;;;4.20;1.50;;;;;;;17.25;59.38;101264.31;20742872;28;20056;-78
2022/07/17 06:31:52;;;;;;;5.85;1.50;;;;;;;17.60;56.04;101263.22;20740835;28;20057;-76
2022/07/17 06:41:53;;;;;;;4.93;1.65;;;;;;;17.86;55.97;101277.47;20738974;28;20057;-77
2022/07/17 06:51:55;;;;;;;7.07;1.80;;;;;;;18.19;54.63;101280.81;20738913;28;20136;-76
2022/07/17 07:01:56;;;;;;;3.63;1.40;;;;;;;18.46;53.41;101271.91;20763130;28;20045;-75
2022/07/17 07:11:57;;;;;;;5.22;1.70;;;;;;;18.62;53.81;101272.25;20775635;28;20049;-77
2022/07/17 07:21:59;;;;;;;6.65;1.58;;;;;;;19.22;52.77;101278.94;20759259;28;20068;-76
2022/07/17 07:32:00;;;;;;;6.55;1.88;;;;;;;19.35;52.59;101275.81;20755707;28;20458;-78
2022/07/17 07:42:01;;;;;;;6.35;1.80;;;;;;;19.53;51.93;101268.94;20755458;28;20053;-76
2022/07/17 07:52:03;;;;;;;8.05;2.03;;;;;;;19.79;53.21;101265.28;20783881;28;20103;-75
2022/07/17 08:02:05;;;;;;;7.97;1.80;;;;;;;20.00;51.62;101264.41;20815308;28;20078;-76
2022/07/17 08:12:07;;;;;;;7.15;1.83;;;;;;;20.30;50.58;101266.72;20908403;28;20497;-80
2022/07/17 08:22:28;;;;;;;9.30;2.08;;;;;;;20.65;49.00;101263.44;20915779;28;20107;-78
2022/07/17 08:32:49;;;;;;;7.93;1.55;;;;;;;21.31;47.13;101264.94;20915365;28;20053;-76
2022/07/17 08:42:51;;;;;;;5.53;1.80;;;;;;;21.38;47.40;101263.72;20913352;28;20051;-80
2022/07/17 08:52:52;;;;;;;7.07;1.80;;;;;;;21.58;46.32;101258.31;21036358;23;20049;-69
2022/07/17 09:02:54;;;;;;;6.85;1.92;;;;;;;22.05;45.76;101260.47;20990436;28;20517;-69
2022/07/17 09:12:55;;;;;;;5.75;1.65;;;;;;;22.47;43.35;101265.47;20989970;28;20048;-68
2022/07/17 09:22:57;;;;;;;4.47;1.35;;;;;;;22.69;43.21;101254.50;20990022;28;20091;-69
2022/07/17 09:32:58;;;;;;;5.75;1.50;;;;;;;23.20;41.57;101249.19;20989256;28;20052;-68
2022/07/17 09:43:00;;;;;;;5.10;1.50;;;;;;;23.40;40.71;101243.59;20988546;28;20502;-69
2022/07/17 09:53:01;;;;;;;5.18;1.65;;;;;;;23.97;41.14;101225.19;20987479;28;20064;-68
2022/07/17 10:03:02;;;;;;;6.13;1.25;;;;;;;24.17;38.75;101215.13;20987413;28;20044;-69
2022/07/17 10:13:04;;;;;;;6.00;1.75;;;;;;;24.47;36.69;101199.06;20985990;28;20072;-68
2022/07/17 10:23:05;;;;;;;3.47;1.58;;;;;;;24.57;34.10;101202.88;20985788;28;20097;-68
2022/07/17 10:33:07;;;;;;;2.95;1.33;;;;;;;24.92;33.51;101194.50;20985155;28;20048;-68
2022/07/17 10:43:08;;;;;;;3.83;1.40;;;;;;;25.02;33.15;101195.63;20984348;28;20052;-68
2022/07/17 10:53:10;;;;;;;3.95;1.40;;;;;;;25.03;32.77;101194.66;20984035;28;20052;-68
2022/07/17 11:03:11;;;;;;;8.13;1.60;;;;;;;25.16;31.83;101184.91;20982516;28;20059;-69
2022/07/17 11:13:13;;;;;;;4.55;1.20;;;;;;;26.00;30.91;101191.91;20981786;28;20052;-68
2022/07/17 11:23:14;;;;;;;4.97;1.38;;;;;;;25.91;29.84;101181.81;20981579;28;20098;-68
2022/07/17 11:33:16;;;;;;;2.97;1.30;;;;;;;26.20;27.45;101169.94;20981980;28;20132;-68
2022/07/17 11:43:17;;;;;;;2.58;1.17;;;;;;;26.01;29.37;101153.38;20982369;28;20050;-68
2022/07/17 11:53:18;;;;;;;4.25;1.17;;;;;;;26.43;27.80;101154.09;20981376;28;20048;-68
2022/07/17 12:03:20;;;;;;;4.38;1.35;;;;;;;26.51;26.67;101157.97;20981448;28;20044;-69
2022/07/17 12:13:22;;;;;;;3.88;1.23;;;;;;;26.60;27.08;101162.69;20981847;28;20437;-69
2022/07/17 12:23:24;;;;;;;3.70;1.63;;;;;;;26.42;28.51;101153.22;20983307;28;20475;-69
2022/07/17 12:33:25;;;;;;;2.10;1.10;;;;;;;26.77;23.64;101139.97;20994986;28;20053;-69
2022/07/17 12:43:27;;;;;;;4.43;1.40;;;;;;;27.46;23.14;101139.50;20995393;28;20048;-68
2022/07/17 12:53:28;;;;;;;5.82;1.27;;;;;;;27.36;24.37;101134.78;20994761;28;20143;-69
2022/07/17 13:03:30;;;;;;;2.63;1.13;;;;;;;27.68;22.87;101126.13;20992969;28;20071;-69
2022/07/17 13:13:31;;;;;;;2.72;1.10;;;;;;;27.45;22.15;101124.28;20992956;28;20072;-69
2022/07/17 13:23:36;;;;;;;2.47;1.20;;;;;;;27.29;23.27;101106.63;20992156;28;20143;-69
2022/07/17 13:33:38;;;;;;;5.80;1.40;;;;;;;27.77;21.85;101101.22;20990281;28;20091;-69
2022/07/17 13:43:39;;;;;;;5.57;1.20;;;;;;;27.96;21.97;101094.44;20990456;28;20051;-69
2022/07/17 13:53:41;;;;;;;2.75;1.20;;;;;;;27.95;22.65;101087.34;20989800;28;20056;-69
2022/07/17 14:03:42;;;;;;;3.17;1.13;;;;;;;27.89;21.74;101087.81;20987146;28;20576;-69
2022/07/17 14:13:44;;;;;;;4.95;1.35;;;;;;;28.14;20.78;101087.59;20980804;28;20045;-69
2022/07/17 14:23:51;;;;;;;4.20;1.15;;;;;;;28.23;20.41;101064.50;20981341;28;20048;-69
2022/07/17 14:33:52;;;;;;;2.60;1.00;;;;;;;28.35;21.04;101071.59;20986028;28;20060;-67
2022/07/17 14:43:53;;;;;;;4.22;1.40;;;;;;;28.28;20.44;101057.75;20985966;28;20535;-67
2022/07/17 14:53:55;;;;;;;6.40;1.35;;;;;;;28.35;19.37;101059.00;20985804;28;20509;-67
2022/07/17 15:03:56;;;;;;;3.05;1.27;;;;;;;28.36;20.22;101047.25;20982498;28;20131;-67
2022/07/17 15:13:57;;;;;;;5.03;1.50;;;;;;;28.75;19.98;101036.06;20982402;28;20049;-66
2022/07/17 15:23:59;;;;;;;3.03;1.30;;;;;;;28.81;21.09;101036.41;20983176;28;20049;-67
2022/07/17 15:34:00;;;;;;;4.05;1.30;;;;;;;28.86;22.74;101027.94;20981044;28;20056;-70
2022/07/17 15:44:02;;;;;;;2.60;1.30;;;;;;;28.97;21.04;101021.69;20981791;28;20556;-70
2022/07/17 15:54:07;;;;;;;3.28;1.27;;;;;;;28.83;20.74;101015.56;20981636;28;20059;-69
2022/07/17 16:04:09;;;;;;;4.60;1.55;;;;;;;29.09;20.43;100999.97;20986211;28;20041;-70
2022/07/17 16:14:10;;;;;;;3.83;1.40;;;;;;;29.09;21.56;101007.19;20989554;28;20067;-69
2022/07/17 16:24:12;;;;;;;3.67;1.30;;;;;;;29.00;21.79;100989.09;20988237;28;20082;-70
2022/07/17 16:34:13;;;;;;;4.47;1.40;;;;;;;29.11;22.07;100989.03;20987627;28;20580;-69
2022/07/17 16:44:15;;;;;;;3.65;1.30;;;;;;;29.14;23.08;100978.84;20986188;28;20055;-69
2022/07/17 16:54:16;;;;;;;2.75;1.35;;;;;;;29.31;21.69;100961.22;20985526;28;20148;-70
2022/07/17 17:04:18;;;;;;;4.20;1.73;;;;;;;29.08;22.87;100949.72;20984293;28;20102;-69
2022/07/17 17:14:19;;;;;;;4.10;1.50;;;;;;;29.15;22.39;100950.03;20983195;28;20072;-69
2022/07/17 17:24:21;;;;;;;5.13;1.40;;;;;;;28.97;23.08;100951.59;20983134;28;20121;-70
2022/07/17 17:34:22;;;;;;;3.25;1.17;;;;;;;28.97;23.81;100938.09;20974305;28;20052;-69
2022/07/17 17:44:24;;;;;;;2.83;1.30;;;;;;;28.78;24.02;100933.38;20981466;28;20052;-70
2022/07/17 17:54:25;;;;;;;4.50;1.42;;;;;;;28.48;22.62;100939.47;20979463;28;20067;-68
2022/07/17 18:04:27;;;;;;;3.03;1.30;;;;;;;28.22;23.69;100937.06;20977712;28;20115;-69
2022/07/17 18:14:28;;;;;;;5.45;1.10;;;;;;;27.86;24.06;100949.81;20977267;28;20048;-68
2022/07/17 18:24:29;;;;;;;5.90;1.50;;;;;;;27.62;24.32;100947.19;20975951;28;20720;-69
2022/07/17 18:34:31;;;;;;;4.38;1.35;;;;;;;27.22;25.26;100954.81;20975143;28;20052;-67
2022/07/17 18:44:32;;;;;;;4.97;1.08;;;;;;;26.81;25.95;100964.13;20973997;28;20044;-68
2022/07/17 18:54:34;;;;;;;4.53;1.15;;;;;;;26.00;27.56;100979.91;20975020;28;20049;-67
2022/07/17 19:04:35;;;;;;;3.33;1.13;;;;;;;25.59;28.22;100997.06;20974105;28;20497;-67
2022/07/17 19:14:37;;;;;;;5.18;1.30;;;;;;;25.15;28.80;100992.03;20973140;28;20056;-67
2022/07/17 19:24:39;;;;;;;2.85;1.33;;;;;;;24.70;30.37;101000.31;20973340;28;20044;-67
2022/07/17 19:34:42;;;;;;;3.28;1.02;;;;;;;24.24;30.81;100994.34;20971050;28;20596;-66
2022/07/17 19:44:43;;;;;;;4.07;1.25;;;;;;;23.78;32.22;101014.13;20970172;28;20139;-67
2022/07/17 19:54:45;;;;;;;5.38;1.30;;;;;;;23.23;33.33;101030.75;20971818;28;20408;-67
2022/07/17 20:04:46;;;;;;;4.25;1.20;;;;;;;22.85;33.34;101032.91;20969580;28;20044;-66
2022/07/17 20:14:47;;;;;;;2.67;1.08;;;;;;;22.76;32.50;101022.78;20968271;28;20408;-70
2022/07/17 20:24:49;;;;;;;3.03;0.98;;;;;;;22.56;33.53;101023.03;20969793;28;20049;-69
2022/07/17 20:34:50;;;;;;;3.72;1.20;;;;;;;22.07;34.80;101025.69;20968831;28;20071;-70
2022/07/17 20:44:51;;;;;;;3.88;1.20;;;;;;;21.60;36.68;101050.34;20972835;28;20052;-70
2022/07/17 20:54:53;;;;;;;3.15;1.10;;;;;;;21.49;35.43;101043.78;20983199;28;20513;-70
2022/07/17 21:04:55;;;;;;;4.10;1.10;;;;;;;21.53;34.53;101057.81;20983526;28;20055;-69
2022/07/17 21:14:57;;;;;;;2.40;0.95;;;;;;;21.44;34.25;101056.47;20982668;28;20556;-70
2022/07/17 21:25:00;;;;;;;4.95;1.30;;;;;;;21.35;34.47;101066.72;20981928;28;20507;-70
2022/07/17 21:35:01;;;;;;;3.92;1.05;;;;;;;21.01;34.78;101063.88;20979834;28;20048;-71
2022/07/17 21:45:03;;;;;;;4.38;1.10;;;;;;;20.65;36.11;101066.53;20978066;28;20048;-71
2022/07/17 21:55:04;;;;;;;4.25;1.10;;;;;;;20.58;37.08;101065.06;20978916;28;20048;-70
2022/07/17 22:05:05;;;;;;;5.07;1.27;;;;;;;20.20;38.21;101085.41;20975067;28;20138;-70
2022/07/17 22:15:07;;;;;;;4.78;1.38;;;;;;;20.02;38.28;101081.75;21069136;28;20074;-70
2022/07/17 22:25:08;;;;;;;3.28;1.20;;;;;;;19.81;38.67;101088.03;21068884;28;20052;-70
2022/07/17 22:35:10;;;;;;;4.40;1.40;;;;;;;19.75;41.01;101083.00;21067123;28;20419;-70
2022/07/17 22:45:11;;;;;;;4.03;1.33;;;;;;;19.68;40.92;101088.53;21066261;28;20056;-70
2022/07/17 22:55:13;;;;;;;3.03;1.30;;;;;;;19.44;42.18;101085.09;21066376;28;20044;-70
2022/07/17 23:05:14;;;;;;;4.40;1.30;;;;;;;19.19;44.09;101079.06;21065375;28;20470;-70
2022/07/17 23:15:15;;;;;;;4.13;1.33;;;;;;;19.01;43.20;101075.34;21065493;28;20051;-71
2022/07/17 23:25:17;;;;;;;3.60;1.00;;;;;;;18.75;43.60;101080.84;21064501;28;20393;-70
2022/07/17 23:35:18;;;;;;;5.18;1.38;;;;;;;18.43;44.46;101093.50;21063711;28;20063;-70
2022/07/17 23:45:20;;;;;;;3.63;1.10;;;;;;;18.38;45.03;101074.25;21063949;28;20088;-70
2022/07/17 23:55:21;;;;;;;4.88;1.40;;;;;;;18.33;44.27;101077.06;21063781;28;20419;-70
